createdAt,value
2019-02-08T00:00:47.770Z,3.91
2019-02-08T00:03:14.875Z,3.77
2019-02-08T00:05:42.132Z,3.72
2019-02-08T00:08:09.473Z,3.68
2019-02-08T00:10:36.937Z,3.62
2019-02-08T00:13:04.133Z,3.62
2019-02-08T00:15:31.319Z,3.59
2019-02-08T00:17:58.695Z,3.62
2019-02-08T00:20:25.874Z,3.90
2019-02-08T00:22:53.077Z,3.96
2019-02-08T00:25:20.207Z,3.82
2019-02-08T00:27:47.765Z,3.81
2019-02-08T00:30:17.897Z,3.70
2019-02-08T00:32:45.148Z,3.71
2019-02-08T00:35:12.932Z,3.60
2019-02-08T00:37:40.180Z,3.56
2019-02-08T00:40:09.568Z,3.69
2019-02-08T00:42:36.752Z,3.72
2019-02-08T00:45:04.889Z,3.75
2019-02-08T00:47:32.286Z,3.88
2019-02-08T00:49:59.718Z,4.04
2019-02-08T00:52:27.054Z,4.28
2019-02-08T00:54:54.116Z,4.42
2019-02-08T00:57:21.303Z,4.26
2019-02-08T00:59:48.486Z,4.18
2019-02-08T01:02:16.119Z,4.18
2019-02-08T01:04:43.268Z,4.19
2019-02-08T01:07:10.787Z,4.26
2019-02-08T01:09:38.017Z,4.11
2019-02-08T01:12:05.175Z,3.98
2019-02-08T01:14:32.620Z,4.03
2019-02-08T01:17:00.088Z,4.09
2019-02-08T01:19:27.612Z,4.18
2019-02-08T01:21:54.904Z,4.09
2019-02-08T01:24:21.966Z,4.15
2019-02-08T01:26:49.217Z,4.25
2019-02-08T01:29:16.603Z,4.34
2019-02-08T01:31:43.715Z,4.44
2019-02-08T01:34:11.208Z,4.44
2019-02-08T01:36:38.387Z,4.51
2019-02-08T01:39:06.886Z,4.46
2019-02-08T01:41:34.219Z,4.39
2019-02-08T01:44:01.479Z,4.36
2019-02-08T01:46:28.632Z,4.40
2019-02-08T01:48:55.705Z,4.69
2019-02-08T01:51:22.889Z,4.82
2019-02-08T01:53:49.966Z,4.83
2019-02-08T01:56:17.112Z,4.88
2019-02-08T01:58:44.493Z,4.94
2019-02-08T02:01:11.759Z,4.99
2019-02-08T02:03:38.937Z,5.05
2019-02-08T02:06:06.421Z,5.10
2019-02-08T02:08:33.709Z,5.19
2019-02-08T02:11:00.857Z,5.24
2019-02-08T02:13:28.055Z,5.34
2019-02-08T02:15:55.191Z,5.40
2019-02-08T02:18:22.367Z,5.51
2019-02-08T02:20:49.432Z,5.58
2019-02-08T02:23:16.678Z,5.80
2019-02-08T02:25:43.921Z,5.77
2019-02-08T02:28:11.416Z,5.56
2019-02-08T02:30:38.563Z,5.61
2019-02-08T02:33:07.741Z,5.61
2019-02-08T02:35:34.945Z,5.74
2019-02-08T02:38:02.189Z,5.71
2019-02-08T02:40:29.369Z,5.75
2019-02-08T02:42:56.699Z,5.81
2019-02-08T02:45:27.789Z,5.90
2019-02-08T02:47:54.988Z,5.92
2019-02-08T02:50:22.244Z,5.91
2019-02-08T02:52:49.421Z,5.81
2019-02-08T02:55:16.799Z,5.74
2019-02-08T02:57:43.999Z,5.69
2019-02-08T03:00:23.458Z,5.72
2019-02-08T03:02:50.572Z,5.80
2019-02-08T03:05:17.726Z,5.93
2019-02-08T03:07:44.942Z,5.82
2019-02-08T03:10:13.958Z,5.82
2019-02-08T03:12:41.420Z,5.92
2019-02-08T03:15:09.952Z,5.92
2019-02-08T03:17:37.029Z,5.89
2019-02-08T03:20:05.711Z,5.83
2019-02-08T03:22:32.805Z,5.87
2019-02-08T03:24:59.937Z,5.92
2019-02-08T03:27:27.103Z,5.87
2019-02-08T03:29:54.252Z,5.77
2019-02-08T03:32:21.501Z,5.60
2019-02-08T03:34:48.645Z,5.63
2019-02-08T03:37:15.840Z,5.77
2019-02-08T03:39:43.035Z,5.75
2019-02-08T03:42:10.459Z,5.78
2019-02-08T03:44:37.950Z,5.67
2019-02-08T03:47:05.154Z,5.65
2019-02-08T03:49:32.350Z,5.61
2019-02-08T03:51:59.503Z,5.64
2019-02-08T03:54:26.579Z,5.66
2019-02-08T03:56:53.718Z,5.62
2019-02-08T03:59:20.865Z,5.65
2019-02-08T04:01:48.111Z,5.67
2019-02-08T04:04:15.806Z,5.60
2019-02-08T04:06:42.955Z,5.54
2019-02-08T04:09:10.175Z,5.52
2019-02-08T04:11:37.509Z,5.65
2019-02-08T04:14:04.784Z,5.80
2019-02-08T04:16:31.989Z,5.78
2019-02-08T04:18:59.331Z,5.77
2019-02-08T04:21:26.551Z,5.70
2019-02-08T04:23:53.633Z,5.85
2019-02-08T04:26:20.851Z,5.91
2019-02-08T04:28:48.063Z,6.00
2019-02-08T04:31:15.301Z,6.00
2019-02-08T04:33:42.478Z,6.03
2019-02-08T04:36:09.829Z,6.10
2019-02-08T04:38:36.902Z,6.11
2019-02-08T04:41:04.070Z,6.00
2019-02-08T04:43:31.310Z,5.98
2019-02-08T04:45:58.768Z,6.09
2019-02-08T04:48:25.931Z,6.09
2019-02-08T04:50:53.082Z,5.97
2019-02-08T04:53:22.130Z,6.05
2019-02-08T04:55:49.321Z,6.12
2019-02-08T04:58:16.971Z,6.11
2019-02-08T05:00:44.159Z,6.21
2019-02-08T05:03:11.336Z,6.19
2019-02-08T05:05:38.432Z,6.18
2019-02-08T05:08:05.704Z,6.10
2019-02-08T05:10:33.452Z,6.07
2019-02-08T05:13:00.629Z,6.03
2019-02-08T05:15:28.002Z,5.99
2019-02-08T05:17:55.340Z,6.05
2019-02-08T05:20:23.957Z,6.22
2019-02-08T05:22:51.044Z,6.13
2019-02-08T05:25:18.279Z,6.22
2019-02-08T05:27:45.356Z,6.26
2019-02-08T05:30:18.340Z,6.16
2019-02-08T05:32:45.520Z,6.10
2019-02-08T05:35:12.765Z,6.15
2019-02-08T05:37:39.996Z,6.14
2019-02-08T05:40:08.030Z,6.01
2019-02-08T05:42:35.173Z,6.07
2019-02-08T05:45:02.614Z,6.17
2019-02-08T05:47:29.895Z,6.18
2019-02-08T05:49:57.063Z,6.06
2019-02-08T05:52:24.280Z,6.03
2019-02-08T05:54:54.368Z,6.06
2019-02-08T05:57:20.523Z,6.09
2019-02-08T05:59:47.722Z,6.14
2019-02-08T06:02:15.415Z,6.16
2019-02-08T06:04:43.564Z,6.21
2019-02-08T06:07:10.811Z,6.20
2019-02-08T06:09:38.154Z,6.17
2019-02-08T06:12:05.485Z,6.19
2019-02-08T06:14:32.671Z,6.17
2019-02-08T06:16:59.843Z,6.10
2019-02-08T06:19:27.253Z,6.02
2019-02-08T06:21:54.537Z,6.17
2019-02-08T06:24:21.698Z,6.18
2019-02-08T06:26:48.894Z,6.15
2019-02-08T06:29:16.100Z,6.25
2019-02-08T06:31:43.545Z,6.28
2019-02-08T06:34:11.297Z,6.30
2019-02-08T06:36:38.504Z,6.27
2019-02-08T06:39:08.005Z,6.15
2019-02-08T06:41:35.227Z,6.07
2019-02-08T06:44:02.581Z,6.03
2019-02-08T06:46:29.686Z,6.09
2019-02-08T06:48:57.098Z,6.22
2019-02-08T06:51:24.188Z,6.27
2019-02-08T06:53:51.262Z,6.28
2019-02-08T06:56:36.529Z,6.23
2019-02-08T06:59:17.807Z,6.25
2019-02-08T07:02:19.705Z,6.31
2019-02-08T07:05:04.914Z,6.29
2019-02-08T07:07:38.541Z,6.25
2019-02-08T07:10:24.272Z,6.24
2019-02-08T07:13:13.883Z,6.45
2019-02-08T07:15:57.625Z,6.52
2019-02-08T07:18:56.844Z,6.58
2019-02-08T07:21:34.141Z,6.61
2019-02-08T07:24:15.745Z,6.55
2019-02-08T07:27:05.306Z,6.55
2019-02-08T07:30:01.058Z,6.66
2019-02-08T07:32:44.276Z,6.73
2019-02-08T07:35:29.765Z,6.74
2019-02-08T07:38:21.964Z,6.65
2019-02-08T07:41:27.282Z,6.58
2019-02-08T07:44:15.108Z,6.73
2019-02-08T07:47:03.944Z,7.01
2019-02-08T07:50:07.642Z,7.07
2019-02-08T07:52:45.760Z,7.12
2019-02-08T07:55:36.640Z,7.29
2019-02-08T07:58:26.515Z,7.38
2019-02-08T08:01:01.004Z,7.43
2019-02-08T08:03:48.580Z,7.56
2019-02-08T08:06:23.145Z,7.72
2019-02-08T08:09:15.579Z,7.83
2019-02-08T08:11:55.556Z,7.68
2019-02-08T08:14:35.581Z,7.54
2019-02-08T08:17:17.053Z,7.67
2019-02-08T08:19:59.511Z,7.70
2019-02-08T08:22:35.476Z,7.76
2019-02-08T08:25:13.579Z,7.76
2019-02-08T08:27:58.800Z,7.78
2019-02-08T08:30:47.925Z,7.74
2019-02-08T08:33:25.498Z,7.75
2019-02-08T08:36:20.784Z,7.77
2019-02-08T08:39:11.380Z,7.85
2019-02-08T08:42:41.509Z,7.74
2019-02-08T08:45:34.967Z,7.73
2019-02-08T08:48:51.624Z,7.74
2019-02-08T08:52:02.684Z,7.89
2019-02-08T08:55:10.399Z,7.79
2019-02-08T08:58:25.295Z,7.84
2019-02-08T09:01:41.893Z,7.86
2019-02-08T09:04:41.837Z,7.79
2019-02-08T09:08:00.004Z,7.79
2019-02-08T09:11:10.653Z,7.80
2019-02-08T09:14:09.701Z,7.80
2019-02-08T09:17:01.778Z,7.79
2019-02-08T09:19:57.013Z,7.95
2019-02-08T09:22:54.699Z,8.05
2019-02-08T09:25:33.927Z,8.01
2019-02-08T09:28:26.239Z,8.11
2019-02-08T09:31:20.241Z,8.19
2019-02-08T09:34:36.944Z,8.32
2019-02-08T09:37:36.163Z,8.34
2019-02-08T09:40:34.397Z,8.35
2019-02-08T09:43:44.339Z,8.42
2019-02-08T09:46:57.858Z,8.52
2019-02-08T09:50:06.516Z,8.47
2019-02-08T09:53:03.938Z,8.40
2019-02-08T09:56:03.038Z,8.26
2019-02-08T09:59:17.782Z,8.28
2019-02-08T10:02:32.451Z,8.34
2019-02-08T10:05:35.607Z,8.35
2019-02-08T10:08:56.567Z,8.31
2019-02-08T10:12:10.052Z,8.42
2019-02-08T10:15:05.376Z,8.57
2019-02-08T10:18:08.823Z,8.66
2019-02-08T10:21:25.835Z,8.64
2019-02-08T10:24:37.607Z,8.79
2019-02-08T10:27:52.497Z,8.89
2019-02-08T10:30:57.034Z,9.16
2019-02-08T10:34:19.086Z,9.38
2019-02-08T10:37:15.236Z,9.54
2019-02-08T10:40:20.415Z,9.85
2019-02-08T10:43:29.609Z,9.94
2019-02-08T10:46:26.188Z,9.82
2019-02-08T10:49:30.949Z,9.64
2019-02-08T10:52:42.022Z,9.63
2019-02-08T10:55:41.472Z,9.47
2019-02-08T10:58:58.235Z,9.53
2019-02-08T11:02:04.252Z,9.74
2019-02-08T11:05:23.689Z,9.84
2019-02-08T11:08:27.571Z,10.11
2019-02-08T11:11:29.056Z,10.53
2019-02-08T11:14:49.904Z,10.92
2019-02-08T11:18:12.173Z,11.36
2019-02-08T11:20:39.259Z,11.84
2019-02-08T11:23:06.732Z,11.90
2019-02-08T11:25:34.048Z,12.08
2019-02-08T11:28:01.181Z,12.16
2019-02-08T11:30:28.432Z,11.99
2019-02-08T11:32:55.514Z,12.13
2019-02-08T11:35:23.118Z,12.33
2019-02-08T11:37:50.320Z,12.52
2019-02-08T11:40:21.501Z,12.95
2019-02-08T11:42:48.657Z,13.05
2019-02-08T11:45:16.513Z,13.10
2019-02-08T11:47:43.615Z,13.05
2019-02-08T11:50:14.051Z,13.09
2019-02-08T11:52:41.359Z,12.91
2019-02-08T11:55:09.057Z,12.77
2019-02-08T11:57:36.394Z,12.81
2019-02-08T12:00:05.960Z,12.80
2019-02-08T12:02:40.214Z,12.84
2019-02-08T12:05:02.205Z,12.92
2019-02-08T12:07:29.390Z,12.92
2019-02-08T12:09:56.530Z,12.98
2019-02-08T12:12:23.703Z,12.88
2019-02-08T12:14:50.904Z,12.80
2019-02-08T12:17:18.141Z,12.70
2019-02-08T12:19:45.564Z,12.54
2019-02-08T12:22:12.734Z,12.24
2019-02-08T12:24:40.204Z,12.15
2019-02-08T12:27:07.361Z,12.01
2019-02-08T12:29:34.857Z,12.10
2019-02-08T12:32:02.489Z,12.21
2019-02-08T12:34:30.183Z,12.11
2019-02-08T12:36:57.338Z,12.12
2019-02-08T12:39:24.634Z,12.12
2019-02-08T12:41:51.811Z,11.91
2019-02-08T12:44:19.027Z,11.76
2019-02-08T12:46:46.270Z,11.68
2019-02-08T12:49:13.458Z,11.41
2019-02-08T12:51:40.894Z,11.13
2019-02-08T12:54:08.106Z,10.93
2019-02-08T12:56:35.459Z,10.73
2019-02-08T12:59:02.679Z,10.58
2019-02-08T13:01:37.381Z,10.49
2019-02-08T13:03:58.943Z,10.49
2019-02-08T13:06:26.108Z,10.48
2019-02-08T13:08:53.305Z,10.56
2019-02-08T13:11:20.452Z,10.71
2019-02-08T13:13:47.649Z,10.89
2019-02-08T13:16:14.834Z,10.98
2019-02-08T13:18:42.274Z,11.00
2019-02-08T13:21:09.556Z,11.15
2019-02-08T13:23:37.067Z,11.17
2019-02-08T13:26:04.273Z,11.18
2019-02-08T13:28:31.467Z,11.30
2019-02-08T13:30:58.652Z,11.43
2019-02-08T13:33:25.818Z,11.71
2019-02-08T13:35:52.877Z,11.93
2019-02-08T13:38:20.005Z,11.94
2019-02-08T13:40:47.176Z,12.05
2019-02-08T13:43:14.673Z,12.14
2019-02-08T13:45:41.913Z,12.24
2019-02-08T13:48:09.384Z,12.28
2019-02-08T13:50:36.485Z,12.25
2019-02-08T13:53:03.879Z,12.18
2019-02-08T13:55:31.229Z,12.04
2019-02-08T13:57:58.717Z,12.02
2019-02-08T14:00:28.772Z,11.87
2019-02-08T14:02:55.970Z,11.86
2019-02-08T14:05:23.156Z,11.81
2019-02-08T14:07:50.541Z,11.59
2019-02-08T14:10:18.173Z,11.36
2019-02-08T14:12:45.369Z,11.12
2019-02-08T14:15:12.750Z,10.96
2019-02-08T14:17:39.815Z,10.87
2019-02-08T14:20:09.282Z,10.78
2019-02-08T14:22:36.457Z,10.73
2019-02-08T14:25:05.430Z,10.78
2019-02-08T14:27:32.622Z,10.63
2019-02-08T14:29:59.813Z,10.56
2019-02-08T14:32:27.063Z,10.48
2019-02-08T14:34:54.238Z,10.44
2019-02-08T14:37:22.293Z,10.37
2019-02-08T14:39:49.475Z,10.38
2019-02-08T14:42:16.648Z,10.32
2019-02-08T14:44:43.870Z,10.26
2019-02-08T14:47:11.013Z,10.15
2019-02-08T14:49:38.229Z,10.25
2019-02-08T14:52:05.489Z,10.32
2019-02-08T14:54:32.986Z,10.36
2019-02-08T14:57:00.205Z,10.31
2019-02-08T14:59:27.704Z,10.33
2019-02-08T15:01:54.847Z,10.31
2019-02-08T15:04:22.015Z,10.36
2019-02-08T15:06:49.122Z,10.41
2019-02-08T15:09:16.307Z,10.33
2019-02-08T15:11:43.491Z,10.37
2019-02-08T15:14:10.736Z,10.37
2019-02-08T15:16:37.909Z,10.40
2019-02-08T15:19:05.076Z,10.38
2019-02-08T15:21:32.247Z,10.39
2019-02-08T15:23:59.635Z,10.37
2019-02-08T15:26:26.810Z,10.39
2019-02-08T15:28:54.290Z,10.33
2019-02-08T15:31:21.764Z,10.34
2019-02-08T15:33:48.929Z,10.19
2019-02-08T15:36:16.128Z,10.23
2019-02-08T15:38:43.319Z,10.24
2019-02-08T15:41:10.705Z,10.32
2019-02-08T15:43:37.819Z,10.28
2019-02-08T15:46:05.475Z,10.31
2019-02-08T15:48:32.806Z,10.21
2019-02-08T15:50:59.993Z,10.13
2019-02-08T15:53:27.361Z,10.09
2019-02-08T15:56:01.459Z,10.05
2019-02-08T15:58:28.634Z,10.12
2019-02-08T16:00:55.859Z,10.04
2019-02-08T16:03:23.346Z,9.96
2019-02-08T16:05:50.444Z,9.89
2019-02-08T16:08:17.599Z,9.77
2019-02-08T16:10:44.908Z,9.68
2019-02-08T16:13:12.066Z,9.76
2019-02-08T16:15:39.574Z,9.81
2019-02-08T16:18:06.960Z,9.65
2019-02-08T16:20:34.056Z,9.72
2019-02-08T16:23:01.240Z,9.71
2019-02-08T16:25:29.166Z,9.60
2019-02-08T16:27:56.464Z,9.66
2019-02-08T16:30:25.288Z,9.61
2019-02-08T16:32:52.496Z,9.50
2019-02-08T16:35:20.227Z,9.43
2019-02-08T16:37:47.556Z,9.36
2019-02-08T16:40:17.165Z,9.25
2019-02-08T16:42:44.702Z,9.16
2019-02-08T16:45:15.678Z,9.12
2019-02-08T16:47:42.973Z,9.02
2019-02-08T16:50:12.548Z,8.85
2019-02-08T16:52:40.657Z,8.98
2019-02-08T16:55:08.934Z,8.94
2019-02-08T16:57:36.385Z,8.99
2019-02-08T17:00:09.030Z,8.99
2019-02-08T17:02:36.207Z,9.03
2019-02-08T17:05:04.256Z,9.05
2019-02-08T17:07:31.454Z,9.04
2019-02-08T17:09:58.640Z,9.14
2019-02-08T17:12:25.712Z,9.10
2019-02-08T17:14:53.256Z,8.88
2019-02-08T17:17:20.311Z,8.87
2019-02-08T17:19:47.487Z,8.76
2019-02-08T17:22:14.705Z,8.71
2019-02-08T17:24:42.145Z,8.79
2019-02-08T17:27:09.408Z,8.75
2019-02-08T17:29:36.633Z,8.66
2019-02-08T17:32:03.870Z,8.40
2019-02-08T17:34:31.028Z,8.33
2019-02-08T17:36:58.305Z,8.43
2019-02-08T17:39:25.505Z,8.22
2019-02-08T17:41:52.941Z,8.09
2019-02-08T17:44:20.177Z,8.08
2019-02-08T17:46:47.983Z,8.08
2019-02-08T17:49:15.163Z,7.92
2019-02-08T17:51:42.381Z,8.07
2019-02-08T17:54:09.737Z,8.14
2019-02-08T17:56:36.935Z,8.12
2019-02-08T17:59:04.076Z,7.99
2019-02-08T18:01:31.243Z,8.04
2019-02-08T18:03:58.431Z,8.04
2019-02-08T18:06:25.637Z,8.03
2019-02-08T18:08:52.807Z,8.16
2019-02-08T18:11:19.973Z,8.03
2019-02-08T18:13:47.215Z,7.86
2019-02-08T18:16:14.391Z,7.88
2019-02-08T18:18:41.853Z,7.92
2019-02-08T18:21:10.130Z,7.91
2019-02-08T18:23:37.327Z,7.92
2019-02-08T18:26:04.522Z,7.79
2019-02-08T18:28:31.777Z,7.90
2019-02-08T18:30:58.954Z,8.04
2019-02-08T18:33:26.121Z,8.12
2019-02-08T18:35:53.248Z,8.11
2019-02-08T18:38:20.464Z,8.21
2019-02-08T18:40:47.571Z,8.20
2019-02-08T18:43:15.150Z,8.25
2019-02-08T18:45:42.354Z,8.12
2019-02-08T18:48:10.108Z,8.03
2019-02-08T18:50:39.479Z,8.04
2019-02-08T18:53:06.689Z,8.03
2019-02-08T18:55:34.178Z,7.95
2019-02-08T18:58:01.406Z,7.96
2019-02-08T19:00:30.757Z,7.98
2019-02-08T19:02:58.014Z,7.86
2019-02-08T19:05:25.224Z,8.06
2019-02-08T19:07:52.437Z,8.14
2019-02-08T19:10:19.680Z,8.27
2019-02-08T19:12:46.938Z,8.31
2019-02-08T19:15:15.569Z,8.30
2019-02-08T19:17:43.072Z,8.31
2019-02-08T19:20:12.715Z,8.39
2019-02-08T19:22:39.819Z,8.52
2019-02-08T19:25:10.723Z,8.51
2019-02-08T19:27:38.271Z,8.38
2019-02-08T19:30:07.801Z,8.31
2019-02-08T19:32:34.990Z,8.40
2019-02-08T19:35:02.183Z,8.36
2019-02-08T19:37:29.523Z,8.33
2019-02-08T19:39:56.685Z,8.39
2019-02-08T19:42:23.937Z,8.53
2019-02-08T19:44:51.093Z,8.66
2019-02-08T19:47:18.579Z,8.67
2019-02-08T19:49:45.961Z,8.55
2019-02-08T19:52:13.461Z,8.54
2019-02-08T19:54:40.703Z,8.47
2019-02-08T19:57:08.276Z,8.46
2019-02-08T19:59:35.458Z,8.55
2019-02-08T20:02:02.969Z,8.67
2019-02-08T20:04:30.053Z,8.61
2019-02-08T20:06:57.275Z,8.67
2019-02-08T20:09:24.341Z,8.65
2019-02-08T20:11:51.568Z,8.66
2019-02-08T20:14:18.836Z,8.71
2019-02-08T20:16:46.030Z,8.73
2019-02-08T20:19:13.234Z,8.75
2019-02-08T20:21:40.467Z,8.77
2019-02-08T20:24:07.686Z,8.82
2019-02-08T20:26:35.032Z,8.90
2019-02-08T20:29:02.537Z,8.78
2019-02-08T20:31:29.883Z,8.77
2019-02-08T20:33:57.118Z,8.90
2019-02-08T20:36:24.328Z,9.04
2019-02-08T20:38:51.804Z,9.01
2019-02-08T20:41:19.009Z,9.01
2019-02-08T20:43:46.178Z,9.00
2019-02-08T20:46:13.305Z,8.90
2019-02-08T20:48:40.490Z,8.90
2019-02-08T20:51:07.696Z,8.89
2019-02-08T20:53:35.062Z,8.89
2019-02-08T20:56:02.572Z,8.86
2019-02-08T20:58:30.163Z,8.79
2019-02-08T21:00:57.504Z,8.87
2019-02-08T21:03:25.013Z,8.80
2019-02-08T21:05:52.523Z,8.91
2019-02-08T21:08:20.252Z,8.88
2019-02-08T21:10:47.614Z,8.83
2019-02-08T21:13:15.303Z,8.77
2019-02-08T21:15:42.993Z,8.67
2019-02-08T21:18:11.178Z,8.76
2019-02-08T21:20:38.912Z,8.76
2019-02-08T21:23:07.235Z,8.66
2019-02-08T21:25:34.628Z,8.69
2019-02-08T21:28:01.707Z,8.83
2019-02-08T21:30:28.910Z,8.82
2019-02-08T21:32:56.354Z,8.74
2019-02-08T21:35:23.717Z,8.79
2019-02-08T21:37:50.926Z,8.72
2019-02-08T21:40:20.420Z,8.88
2019-02-08T21:42:47.792Z,8.74
2019-02-08T21:45:18.572Z,8.62
2019-02-08T21:47:45.659Z,8.50
2019-02-08T21:50:14.792Z,8.41
2019-02-08T21:52:41.988Z,8.46
2019-02-08T21:55:09.938Z,8.54
2019-02-08T21:57:37.479Z,8.40
2019-02-08T22:00:19.198Z,8.35
2019-02-08T22:02:48.169Z,8.45
2019-02-08T22:05:15.470Z,8.24
2019-02-08T22:07:42.989Z,8.39
2019-02-08T22:10:10.470Z,8.32
2019-02-08T22:12:37.972Z,8.37
2019-02-08T22:15:07.890Z,8.34
2019-02-08T22:17:35.079Z,8.31
2019-02-08T22:20:03.643Z,8.33
2019-02-08T22:22:30.970Z,8.41
2019-02-08T22:24:58.031Z,8.35
2019-02-08T22:27:25.223Z,8.38
2019-02-08T22:29:52.440Z,8.47
2019-02-08T22:32:19.602Z,8.46
2019-02-08T22:34:46.848Z,8.37
2019-02-08T22:37:14.052Z,8.45
2019-02-08T22:39:41.223Z,8.54
2019-02-08T22:42:08.447Z,8.48
2019-02-08T22:44:35.904Z,8.42
2019-02-08T22:47:03.080Z,8.50
2019-02-08T22:49:30.269Z,8.53
2019-02-08T22:51:57.496Z,8.40
2019-02-08T22:54:24.655Z,8.41
2019-02-08T22:56:51.822Z,8.55
2019-02-08T22:59:22.125Z,8.50
2019-02-08T23:01:49.617Z,8.53
2019-02-08T23:04:17.552Z,8.45
2019-02-08T23:06:45.235Z,8.44
2019-02-08T23:09:22.946Z,8.40
2019-02-08T23:11:50.432Z,8.50
2019-02-08T23:14:17.602Z,8.55
2019-02-08T23:16:44.751Z,8.49
2019-02-08T23:19:11.926Z,8.49
2019-02-08T23:21:39.123Z,8.50
2019-02-08T23:24:06.303Z,8.54
2019-02-08T23:26:33.628Z,8.51
2019-02-08T23:29:00.818Z,8.52
2019-02-08T23:31:27.986Z,8.41
2019-02-08T23:33:55.465Z,8.36
2019-02-08T23:36:22.925Z,8.50
2019-02-08T23:38:50.095Z,8.43
2019-02-08T23:41:17.363Z,8.52
2019-02-08T23:43:44.397Z,8.55
2019-02-08T23:46:11.595Z,8.58
2019-02-08T23:48:38.695Z,8.60
2019-02-08T23:51:05.962Z,8.50
2019-02-08T23:53:33.171Z,8.51
2019-02-08T23:56:00.344Z,8.52
2019-02-08T23:58:27.510Z,8.46
